Delta Virtual Airport Information Service

Tokyo Haneda International Airport

ICAO: RJTT Country: Japan
Latitude: 35.5522 Longitude: 139.78
Latest Arrival : DALJUMP (EHAM-RJTT) Latest Departure : UAL876 (1) (RJTT-KSFO)


WX CaptureLIVE
Data provided by noaa.gov | Fetched at 16:33:27

METAR : RJTT 242100Z 19005KT 9999 FEW020 BKN/// 21/17 Q1011 NOSIG

TAF : RJTT 241705Z 2418/2600 16008KT 9999 FEW020 SCT040 BECMG 2518/2521 05005KT


Runway Data for RJTT
Data provided by openaviationdata.com

Runway ID Mag Var Hdg Length Elevation Surface ILS Freq ILS Id ILS Slope
4 -7 41° 8208 ft 21 ft Asphalt -- -- --
16L -7 156° 9851 ft 21 ft Asphalt -- -- --
16R -7 156° 9851 ft 21 ft Asphalt -- -- --
22 -7 221° 8208 ft 21 ft Asphalt 108.1 IAD 3
34L -7 336° 9851 ft 21 ft Asphalt 111.7 IHA 3
34R -7 336° 9851 ft 21 ft Asphalt 108.9 ITC 3

Tokyo Haneda International Airport, Japan
Use only for reference purposes



Not for navigational purposes.